JIA670 KOKC-KDCA

Flight info

Callsign JIA670
Flight time 2h 28m
Altitude 33000
Route TRUPR3 DRLER FAM J78 HVQ TRUPS5
Aircraft CRJ7/M-SDFGIRWY/S

Departure

Time 2026-03-18 23:04
Airport OKC Will Rogers World Airport (KOKC)

Arrival

Time 2026-03-19 01:32
Airport Ronald Reagan Washington National Airport (KDCA)
Time Latitude Longitude Altitude Speed Heading
2026-03-18 22:45 35.39478 -97.59942 1295 ft 0 kts 56°
2026-03-18 22:56 35.39476 -97.59944 1295 ft 1 kts 56°
2026-03-18 22:56 35.39467 -97.59962 1295 ft 3 kts 56°
2026-03-18 22:57 35.39456 -97.59982 1295 ft 3 kts 55°
2026-03-18 22:57 35.39444 -97.59994 1294 ft 3 kts
2026-03-18 22:57 35.39435 -97.59989 1294 ft 1 kts 316°
2026-03-18 22:57 35.39429 -97.59983 1294 ft 2 kts 316°
2026-03-18 22:58 35.39419 -97.59971 1294 ft 1 kts 316°
2026-03-18 22:59 35.39420 -97.59972 1294 ft 1 kts 316°
2026-03-18 23:00 35.39427 -97.60022 1293 ft 9 kts 262°
2026-03-18 23:00 35.39435 -97.60112 1290 ft 13 kts 311°
2026-03-18 23:00 35.39503 -97.60192 1288 ft 14 kts 317°
2026-03-18 23:00 35.39594 -97.60299 1288 ft 14 kts 315°
2026-03-18 23:01 35.39672 -97.60383 1286 ft 16 kts 332°
2026-03-18 23:01 35.39779 -97.60400 1286 ft 16 kts
2026-03-18 23:01 35.39851 -97.60400 1287 ft 15 kts 359°
2026-03-18 23:01 35.39950 -97.60402 1289 ft 14 kts
2026-03-18 23:02 35.40042 -97.60402 1291 ft 12 kts 358°
2026-03-18 23:02 35.40123 -97.60405 1292 ft 11 kts 359°
2026-03-18 23:02 35.40196 -97.60405 1294 ft 10 kts
2026-03-18 23:02 35.40267 -97.60405 1295 ft 11 kts 359°
2026-03-18 23:03 35.40359 -97.60404 1295 ft 14 kts
2026-03-18 23:03 35.40463 -97.60403 1295 ft 15 kts 359°
2026-03-18 23:03 35.40564 -97.60427 1295 ft 15 kts 312°
2026-03-18 23:03 35.40579 -97.60537 1296 ft 10 kts 262°
2026-03-18 23:04 35.40504 -97.60573 1295 ft 28 kts 180°
2026-03-18 23:04 35.40055 -97.60572 1291 ft 101 kts 180°
2026-03-18 23:04 35.39141 -97.60569 1319 ft 155 kts 179°
2026-03-18 23:04 35.38048 -97.60539 2037 ft 152 kts 179°
2026-03-18 23:05 35.36972 -97.60478 2719 ft 157 kts 178°
2026-03-18 23:05 35.35879 -97.60381 3214 ft 157 kts 176°
2026-03-18 23:05 35.34869 -97.60186 3456 ft 138 kts 166°
2026-03-18 23:05 35.33990 -97.59719 3148 ft 139 kts 153°
2026-03-18 23:06 35.33150 -97.58903 2759 ft 176 kts 131°
2026-03-18 23:06 35.32688 -97.57466 3352 ft 193 kts 92°
2026-03-18 23:06 35.32957 -97.55725 3810 ft 226 kts 71°
2026-03-18 23:06 35.33542 -97.53840 4530 ft 245 kts 70°
2026-03-18 23:07 35.34173 -97.51818 5311 ft 262 kts 68°
2026-03-18 23:07 35.34851 -97.49741 6325 ft 268 kts 70°
2026-03-18 23:07 35.35017 -97.47436 7051 ft 283 kts 102°
2026-03-18 23:07 35.34810 -97.45023 7838 ft 291 kts 81°
2026-03-18 23:08 35.35503 -97.42698 8764 ft 291 kts 57°
2026-03-18 23:08 35.36589 -97.40614 9658 ft 299 kts 52°
2026-03-18 23:08 35.37732 -97.38450 10513 ft 307 kts 58°
2026-03-18 23:08 35.38675 -97.36087 11439 ft 309 kts 61°
2026-03-18 23:09 35.39629 -97.33728 12387 ft 309 kts 58°
2026-03-18 23:09 35.40578 -97.31342 13259 ft 315 kts 63°
2026-03-18 23:09 35.41438 -97.28803 13777 ft 333 kts 63°
2026-03-18 23:09 35.42387 -97.26121 14112 ft 352 kts 62°
2026-03-18 23:10 35.43462 -97.23383 14757 ft 359 kts 59°
2026-03-18 23:10 35.44618 -97.20661 15357 ft 368 kts 58°
2026-03-18 23:10 35.45778 -97.17845 16133 ft 372 kts 59°
2026-03-18 23:10 35.46857 -97.14943 16888 ft 376 kts 61°
2026-03-18 23:11 35.47895 -97.11977 17624 ft 380 kts 61°
2026-03-18 23:11 35.48946 -97.08992 18337 ft 383 kts 60°
2026-03-18 23:11 35.50015 -97.05982 18941 ft 386 kts 60°
2026-03-18 23:11 35.51095 -97.02948 19525 ft 390 kts 60°
2026-03-18 23:12 35.52185 -96.99886 20114 ft 393 kts 60°
2026-03-18 23:12 35.53286 -96.96792 20669 ft 397 kts 60°
2026-03-18 23:12 35.54380 -96.93710 21202 ft 401 kts 60°
2026-03-18 23:12 35.55499 -96.90558 21730 ft 405 kts 60°
2026-03-18 23:13 35.56625 -96.87374 22270 ft 408 kts 60°
2026-03-18 23:13 35.57762 -96.84169 22802 ft 411 kts 60°
2026-03-18 23:13 35.58914 -96.80922 23217 ft 417 kts 60°
2026-03-18 23:13 35.60074 -96.77643 23682 ft 421 kts 60°
2026-03-18 23:14 35.61240 -96.74335 24121 ft 422 kts 60°
2026-03-18 23:14 35.62407 -96.71023 24583 ft 423 kts 60°
2026-03-18 23:14 35.63576 -96.67703 25037 ft 424 kts 60°
2026-03-18 23:14 35.64748 -96.64369 25462 ft 425 kts 59°
2026-03-18 23:15 35.65903 -96.61074 25884 ft 426 kts 59°
2026-03-18 23:15 35.67078 -96.57722 26290 ft 427 kts 59°
2026-03-18 23:15 35.68209 -96.54495 26670 ft 428 kts 59°
2026-03-18 23:15 35.69388 -96.51126 27051 ft 429 kts 59°
2026-03-18 23:16 35.70568 -96.47752 27425 ft 430 kts 59°
2026-03-18 23:16 35.71751 -96.44366 27787 ft 432 kts 59°
2026-03-18 23:16 35.72940 -96.40961 28124 ft 433 kts 59°
2026-03-18 23:16 35.74129 -96.37550 28470 ft 435 kts 59°
2026-03-18 23:17 35.75322 -96.34126 28814 ft 436 kts 59°
2026-03-18 23:17 35.76515 -96.30695 29145 ft 437 kts 59°
2026-03-18 23:17 35.77694 -96.27301 29467 ft 438 kts 59°
2026-03-18 23:17 35.78893 -96.23846 29783 ft 439 kts 59°
2026-03-18 23:18 35.80089 -96.20384 30059 ft 440 kts 59°
2026-03-18 23:18 35.81289 -96.16909 30284 ft 441 kts 58°
2026-03-18 23:18 35.82491 -96.13433 30478 ft 442 kts 58°
2026-03-18 23:18 35.83699 -96.09941 30684 ft 443 kts 58°
2026-03-18 23:19 35.84908 -96.06441 30853 ft 445 kts 58°
2026-03-18 23:19 35.86123 -96.02921 31021 ft 446 kts 58°
2026-03-18 23:19 35.87336 -95.99396 31205 ft 447 kts 58°
2026-03-18 23:19 35.88547 -95.95874 31530 ft 443 kts 58°
2026-03-18 23:20 35.89718 -95.92444 31834 ft 440 kts 57°
2026-03-18 23:20 35.92115 -95.85479 32045 ft 441 kts 57°
2026-03-18 23:20 35.93307 -95.81998 32188 ft 440 kts 57°
2026-03-18 23:21 35.94499 -95.78515 32315 ft 440 kts 57°
2026-03-18 23:21 35.96872 -95.71570 32533 ft 439 kts 57°
2026-03-18 23:21 35.98048 -95.68104 32685 ft 437 kts 57°
2026-03-18 23:22 36.00384 -95.61249 32878 ft 434 kts 56°
2026-03-18 23:22 36.01550 -95.57813 32993 ft 433 kts 56°
2026-03-18 23:22 36.02712 -95.54394 33047 ft 432 kts 56°
2026-03-18 23:23 36.05031 -95.47555 33086 ft 431 kts 56°
2026-03-18 23:23 36.07344 -95.40715 33092 ft 431 kts 56°
2026-03-18 23:24 36.09653 -95.33873 33095 ft 431 kts 57°
2026-03-18 23:24 36.11941 -95.27068 33107 ft 431 kts 56°
2026-03-18 23:25 36.14242 -95.20215 33114 ft 432 kts 56°
2026-03-18 23:25 36.16544 -95.13347 33104 ft 432 kts 56°
2026-03-18 23:26 36.18841 -95.06483 33109 ft 432 kts 56°
2026-03-18 23:26 36.21132 -94.99617 33110 ft 432 kts 56°
2026-03-18 23:27 36.23403 -94.92783 33136 ft 432 kts 56°
2026-03-18 23:27 36.25691 -94.85894 33115 ft 433 kts 56°
2026-03-18 23:28 36.27976 -94.79000 33112 ft 432 kts 56°
2026-03-18 23:28 36.30256 -94.72101 33110 ft 433 kts 56°
2026-03-18 23:29 36.32515 -94.65247 33127 ft 433 kts 56°
2026-03-18 23:29 36.34790 -94.58341 33120 ft 432 kts 56°
2026-03-18 23:30 36.37057 -94.51426 33139 ft 433 kts 56°
2026-03-18 23:30 36.39324 -94.44503 33129 ft 433 kts 56°
2026-03-18 23:31 36.41585 -94.37578 33118 ft 433 kts 56°
2026-03-18 23:31 36.43826 -94.30694 33133 ft 433 kts 56°
2026-03-18 23:32 36.46081 -94.23764 33131 ft 433 kts 56°
2026-03-18 23:32 36.48330 -94.16830 33146 ft 433 kts 56°
2026-03-18 23:33 36.50578 -94.09891 33120 ft 433 kts 56°
2026-03-18 23:33 36.52816 -94.02957 33108 ft 432 kts 57°
2026-03-18 23:34 36.55047 -93.96024 33104 ft 431 kts 56°
2026-03-18 23:34 36.57259 -93.89145 33102 ft 431 kts 57°
2026-03-18 23:35 36.59477 -93.82221 33098 ft 431 kts 57°
2026-03-18 23:35 36.61697 -93.75293 33084 ft 430 kts 57°
2026-03-18 23:36 36.63897 -93.68369 33089 ft 430 kts 57°
2026-03-18 23:36 36.66088 -93.61501 33083 ft 429 kts 57°
2026-03-18 23:37 36.68281 -93.54593 33084 ft 429 kts 57°
2026-03-18 23:37 36.70469 -93.47684 33110 ft 429 kts 56°
2026-03-18 23:38 36.72658 -93.40770 33094 ft 429 kts 57°
2026-03-18 23:38 36.74839 -93.33854 33090 ft 429 kts 57°
2026-03-18 23:39 36.77000 -93.26978 33086 ft 428 kts 57°
2026-03-18 23:39 36.79172 -93.20063 33083 ft 428 kts 57°
2026-03-18 23:40 36.81336 -93.13146 33086 ft 428 kts 57°
2026-03-18 23:40 36.83495 -93.06233 33075 ft 427 kts 57°
2026-03-18 23:41 36.85635 -92.99358 33079 ft 428 kts 57°
2026-03-18 23:41 36.87785 -92.92442 33076 ft 427 kts 57°
2026-03-18 23:42 36.89931 -92.85525 33075 ft 427 kts 57°
2026-03-18 23:43 36.93137 -92.75151 33080 ft 426 kts 57°
2026-03-18 23:43 36.95255 -92.68278 33082 ft 426 kts 57°
2026-03-18 23:44 36.97381 -92.61351 33095 ft 427 kts 57°
2026-03-18 23:44 36.99511 -92.54417 33087 ft 427 kts 57°
2026-03-18 23:45 37.01631 -92.47479 33089 ft 427 kts 57°
2026-03-18 23:45 37.03738 -92.40583 33087 ft 427 kts 57°
2026-03-18 23:46 37.05849 -92.33634 33085 ft 427 kts 57°
2026-03-18 23:46 37.07966 -92.26679 33109 ft 427 kts 57°
2026-03-18 23:47 37.10076 -92.19716 33096 ft 428 kts 57°
2026-03-18 23:47 37.12185 -92.12737 33088 ft 428 kts 57°
2026-03-18 23:48 37.14273 -92.05801 33085 ft 428 kts 57°
2026-03-18 23:48 37.16372 -91.98818 33092 ft 428 kts 57°
2026-03-18 23:49 37.18468 -91.91826 33097 ft 429 kts 57°
2026-03-18 23:49 37.20565 -91.84815 33103 ft 429 kts 57°
2026-03-18 23:50 37.22645 -91.77849 33111 ft 430 kts 57°
2026-03-18 23:50 37.24741 -91.70816 33097 ft 430 kts 57°
2026-03-18 23:51 37.26829 -91.63774 33097 ft 430 kts 57°
2026-03-18 23:51 37.28914 -91.56731 33099 ft 430 kts 57°
2026-03-18 23:52 37.30997 -91.49679 33132 ft 431 kts 57°
2026-03-18 23:52 37.33066 -91.42655 33107 ft 432 kts 58°
2026-03-18 23:53 37.35146 -91.35583 33098 ft 431 kts 57°
2026-03-18 23:53 37.37216 -91.28506 33109 ft 431 kts 58°
2026-03-18 23:54 37.39288 -91.21432 33113 ft 431 kts 58°
2026-03-18 23:54 37.41354 -91.14345 33149 ft 431 kts 58°
2026-03-18 23:55 37.43406 -91.07299 33119 ft 432 kts 58°
2026-03-18 23:55 37.45464 -91.00190 33117 ft 432 kts 58°
2026-03-18 23:56 37.47517 -90.93082 33121 ft 432 kts 58°
2026-03-18 23:56 37.49574 -90.85970 33120 ft 432 kts 58°
2026-03-18 23:57 37.51623 -90.78857 33114 ft 432 kts 58°
2026-03-18 23:57 37.53655 -90.71775 33127 ft 433 kts 58°
2026-03-18 23:58 37.55698 -90.64643 33119 ft 433 kts 58°
2026-03-18 23:58 37.57738 -90.57499 33103 ft 433 kts 58°
2026-03-18 23:59 37.59773 -90.50344 33100 ft 433 kts 58°
2026-03-18 23:59 37.61791 -90.43242 33103 ft 433 kts 58°
2026-03-19 00:00 37.63823 -90.36081 33135 ft 434 kts 58°
2026-03-19 00:00 37.65856 -90.28904 33107 ft 435 kts 58°
2026-03-19 00:01 37.67468 -90.21426 33109 ft 447 kts 65°
2026-03-19 00:01 37.68567 -90.13642 33112 ft 454 kts 70°
2026-03-19 00:02 37.69393 -90.05781 33121 ft 454 kts 70°
2026-03-19 00:02 37.70232 -89.97865 33144 ft 455 kts 70°
2026-03-19 00:03 37.71087 -89.89952 33120 ft 455 kts 69°
2026-03-19 00:03 37.71967 -89.82049 33114 ft 455 kts 70°
2026-03-19 00:04 37.72821 -89.74187 33113 ft 455 kts 70°
2026-03-19 00:04 37.73673 -89.66266 33115 ft 455 kts 70°
2026-03-19 00:05 37.74524 -89.58344 33115 ft 455 kts 70°
2026-03-19 00:05 37.75363 -89.50477 33120 ft 455 kts 70°
2026-03-19 00:06 37.76203 -89.42564 33119 ft 455 kts 70°
2026-03-19 00:06 37.77035 -89.34644 33117 ft 455 kts 70°
2026-03-19 00:07 37.77864 -89.26725 33118 ft 454 kts 70°
2026-03-19 00:07 37.78688 -89.18800 33139 ft 455 kts 70°
2026-03-19 00:08 37.79907 -89.06948 33125 ft 455 kts 70°
2026-03-19 00:08 37.80720 -88.99009 33130 ft 455 kts 70°
2026-03-19 00:09 37.81541 -88.91075 33128 ft 455 kts 70°
2026-03-19 00:09 37.82355 -88.83145 33158 ft 455 kts 70°
2026-03-19 00:10 37.83170 -88.75203 33146 ft 455 kts 70°
2026-03-19 00:10 37.83973 -88.67315 33134 ft 455 kts 70°
2026-03-19 00:11 37.84778 -88.59379 33136 ft 455 kts 70°
2026-03-19 00:11 37.85575 -88.51451 33135 ft 454 kts 70°
2026-03-19 00:12 37.86368 -88.43519 33167 ft 455 kts 70°
2026-03-19 00:12 37.87151 -88.35624 33142 ft 455 kts 71°
2026-03-19 00:13 37.87932 -88.27682 33141 ft 455 kts 71°
2026-03-19 00:13 37.88710 -88.19739 33136 ft 455 kts 71°
2026-03-19 00:14 37.89481 -88.11799 33133 ft 454 kts 71°
2026-03-19 00:14 37.90248 -88.03858 33157 ft 455 kts 71°
2026-03-19 00:15 37.91005 -87.95963 33142 ft 455 kts 71°
2026-03-19 00:15 37.91758 -87.88019 33146 ft 454 kts 71°
2026-03-19 00:16 37.92510 -87.80073 33142 ft 454 kts 71°
2026-03-19 00:16 37.93260 -87.72130 33162 ft 454 kts 71°
2026-03-19 00:17 37.93983 -87.64170 33159 ft 456 kts 72°
2026-03-19 00:17 37.94692 -87.56246 33147 ft 456 kts 72°
2026-03-19 00:18 37.95395 -87.48264 33143 ft 456 kts 72°
2026-03-19 00:18 37.96090 -87.40282 33141 ft 456 kts 72°
2026-03-19 00:19 37.96775 -87.32302 33189 ft 455 kts 72°
2026-03-19 00:19 37.97455 -87.24365 33148 ft 456 kts 72°
2026-03-19 00:20 37.98131 -87.16370 33147 ft 456 kts 72°
2026-03-19 00:20 37.98805 -87.08372 33149 ft 456 kts 72°
2026-03-19 00:21 37.99473 -87.00370 33146 ft 456 kts 72°
2026-03-19 00:21 38.00131 -86.92426 33173 ft 457 kts 72°
2026-03-19 00:22 38.00784 -86.84411 33152 ft 457 kts 73°
2026-03-19 00:22 38.01437 -86.76395 33150 ft 457 kts 73°
2026-03-19 00:23 38.02086 -86.68375 33153 ft 457 kts 73°
2026-03-19 00:23 38.02726 -86.60352 33152 ft 457 kts 73°
2026-03-19 00:24 38.03361 -86.52376 33175 ft 458 kts 73°
2026-03-19 00:24 38.03990 -86.44334 33165 ft 459 kts 73°
2026-03-19 00:25 38.04617 -86.36273 33160 ft 459 kts 73°
2026-03-19 00:25 38.05241 -86.28217 33156 ft 459 kts 73°
2026-03-19 00:26 38.05852 -86.20205 33156 ft 459 kts 73°
2026-03-19 00:26 38.06465 -86.12132 33172 ft 460 kts 73°
2026-03-19 00:27 38.07073 -86.04045 33159 ft 460 kts 73°
2026-03-19 00:27 38.07669 -85.96011 33156 ft 460 kts 73°
2026-03-19 00:28 38.08265 -85.87916 33157 ft 461 kts 73°
2026-03-19 00:28 38.08856 -85.79817 33159 ft 461 kts 73°
2026-03-19 00:29 38.09443 -85.71713 33165 ft 461 kts 74°
2026-03-19 00:29 38.10024 -85.63608 33157 ft 461 kts 73°
2026-03-19 00:30 38.10619 -85.55501 33158 ft 461 kts 73°
2026-03-19 00:30 38.11215 -85.47447 33163 ft 461 kts 73°
2026-03-19 00:31 38.11858 -85.39352 33187 ft 461 kts 73°
2026-03-19 00:31 38.12514 -85.31249 33179 ft 462 kts 73°
2026-03-19 00:32 38.13150 -85.23137 33165 ft 462 kts 74°
2026-03-19 00:32 38.13778 -85.15075 33174 ft 462 kts 74°
2026-03-19 00:33 38.14403 -85.06956 33178 ft 462 kts 74°
2026-03-19 00:33 38.15028 -84.98835 33187 ft 463 kts 75°
2026-03-19 00:34 38.15642 -84.90691 33172 ft 463 kts 75°
2026-03-19 00:34 38.16248 -84.82538 33169 ft 464 kts 75°
2026-03-19 00:35 38.16845 -84.74435 33181 ft 464 kts 75°
2026-03-19 00:35 38.17448 -84.66279 33214 ft 464 kts 75°
2026-03-19 00:36 38.18055 -84.58110 33189 ft 465 kts 76°
2026-03-19 00:36 38.18638 -84.49929 33188 ft 465 kts 76°
2026-03-19 00:37 38.19211 -84.41799 33193 ft 465 kts 76°
2026-03-19 00:37 38.19792 -84.33614 33200 ft 465 kts 76°
2026-03-19 00:38 38.20380 -84.25430 33223 ft 465 kts 77°
2026-03-19 00:38 38.20967 -84.17235 33209 ft 466 kts 77°
2026-03-19 00:39 38.21527 -84.09091 33207 ft 466 kts 77°
2026-03-19 00:39 38.22094 -84.00886 33211 ft 466 kts 77°
2026-03-19 00:40 38.22646 -83.92675 33209 ft 466 kts 77°
2026-03-19 00:40 38.23190 -83.84455 33206 ft 467 kts 78°
2026-03-19 00:41 38.23725 -83.76287 33207 ft 467 kts 78°
2026-03-19 00:41 38.24261 -83.68056 33206 ft 467 kts 78°
2026-03-19 00:42 38.24790 -83.59823 33200 ft 467 kts 78°
2026-03-19 00:42 38.25317 -83.51582 33226 ft 468 kts 79°
2026-03-19 00:43 38.25828 -83.43384 33227 ft 468 kts 80°
2026-03-19 00:43 38.26339 -83.35119 33226 ft 469 kts 80°
2026-03-19 00:44 38.26850 -83.26849 33226 ft 469 kts 80°
2026-03-19 00:44 38.27353 -83.18575 33228 ft 469 kts 80°
2026-03-19 00:45 38.27848 -83.10294 33231 ft 470 kts 81°
2026-03-19 00:45 38.28335 -83.02055 33228 ft 470 kts 81°
2026-03-19 00:46 38.28822 -82.93762 33226 ft 470 kts 81°
2026-03-19 00:46 38.29302 -82.85457 33220 ft 471 kts 81°
2026-03-19 00:47 38.29780 -82.77144 33222 ft 471 kts 82°
2026-03-19 00:47 38.30241 -82.68878 33212 ft 471 kts 82°
2026-03-19 00:48 38.30706 -82.60558 33204 ft 472 kts 82°
2026-03-19 00:48 38.31164 -82.52220 33197 ft 472 kts 82°
2026-03-19 00:49 38.31617 -82.43889 33227 ft 472 kts 82°
2026-03-19 00:49 38.32061 -82.35606 33235 ft 472 kts 83°
2026-03-19 00:50 38.32500 -82.27257 33231 ft 473 kts 83°
2026-03-19 00:50 38.32937 -82.18902 33233 ft 473 kts 83°
2026-03-19 00:51 38.33366 -82.10541 33234 ft 473 kts 83°
2026-03-19 00:51 38.33787 -82.02231 33233 ft 473 kts 83°
2026-03-19 00:52 38.34207 -81.93867 33236 ft 473 kts 83°
2026-03-19 00:52 38.34621 -81.85494 33226 ft 474 kts 83°
2026-03-19 00:53 38.35000 -81.77112 33219 ft 475 kts 85°
2026-03-19 00:53 38.34828 -81.68689 33215 ft 477 kts 91°
2026-03-19 00:54 38.34438 -81.60306 33214 ft 477 kts 91°
2026-03-19 00:54 38.34157 -81.51872 33259 ft 477 kts 90°
2026-03-19 00:55 38.33881 -81.43430 33273 ft 477 kts 90°
2026-03-19 00:55 38.33600 -81.34988 33288 ft 477 kts 90°
2026-03-19 00:56 38.33315 -81.26538 33286 ft 477 kts 91°
2026-03-19 00:56 38.33068 -81.18162 33283 ft 475 kts 90°
2026-03-19 00:57 38.32806 -81.09769 33280 ft 473 kts 91°
2026-03-19 00:57 38.32507 -81.01415 33282 ft 471 kts 91°
2026-03-19 00:58 38.32201 -80.93092 33281 ft 469 kts 91°
2026-03-19 00:58 38.31891 -80.84859 33293 ft 468 kts 91°
2026-03-19 00:59 38.31576 -80.76600 33298 ft 466 kts 91°
2026-03-19 00:59 38.31251 -80.68365 33303 ft 465 kts 92°
2026-03-19 01:00 38.30943 -80.60156 33314 ft 464 kts 92°
2026-03-19 01:00 38.30631 -80.52026 33318 ft 463 kts 92°
2026-03-19 01:01 38.30311 -80.43856 33319 ft 462 kts 92°
2026-03-19 01:01 38.29982 -80.35703 33322 ft 461 kts 92°
2026-03-19 01:02 38.29649 -80.27568 33327 ft 460 kts 92°
2026-03-19 01:02 38.29310 -80.19445 33327 ft 459 kts 92°
2026-03-19 01:03 38.28966 -80.11390 33328 ft 458 kts 93°
2026-03-19 01:03 38.28617 -80.03294 33326 ft 458 kts 93°
2026-03-19 01:04 38.28265 -79.95210 33333 ft 457 kts 94°
2026-03-19 01:04 38.27906 -79.87137 33331 ft 457 kts 93°
2026-03-19 01:05 38.27548 -79.79127 33346 ft 456 kts 92°
2026-03-19 01:05 38.27736 -79.75112 33338 ft 455 kts 78°
2026-03-19 01:05 38.28436 -79.71193 33339 ft 454 kts 75°
2026-03-19 01:06 38.30348 -79.63552 33335 ft 452 kts 65°
2026-03-19 01:06 38.32998 -79.56301 33337 ft 451 kts 62°
2026-03-19 01:07 38.35583 -79.49019 33332 ft 451 kts 65°
2026-03-19 01:07 38.38086 -79.41682 33332 ft 451 kts 65°
2026-03-19 01:08 38.40572 -79.34391 33336 ft 451 kts 65°
2026-03-19 01:08 38.42827 -79.26879 32946 ft 462 kts 73°
2026-03-19 01:09 38.43605 -79.22837 32403 ft 476 kts 78°
2026-03-19 01:09 38.44250 -79.18649 31881 ft 487 kts 78°
2026-03-19 01:09 38.44903 -79.14361 31366 ft 497 kts 78°
2026-03-19 01:09 38.45624 -79.10041 30865 ft 498 kts 77°
2026-03-19 01:10 38.46393 -79.05737 30362 ft 498 kts 77°
2026-03-19 01:10 38.47146 -79.01491 29773 ft 498 kts 77°
2026-03-19 01:10 38.47922 -78.97184 29187 ft 498 kts 76°
2026-03-19 01:10 38.48685 -78.92883 28610 ft 493 kts 77°
2026-03-19 01:11 38.49413 -78.88673 28040 ft 477 kts 77°
2026-03-19 01:11 38.50113 -78.84592 27478 ft 465 kts 77°
2026-03-19 01:11 38.50773 -78.80604 26928 ft 454 kts 78°
2026-03-19 01:11 38.51392 -78.76683 26384 ft 448 kts 78°
2026-03-19 01:12 38.52002 -78.72800 25862 ft 445 kts 78°
2026-03-19 01:12 38.52605 -78.68982 25345 ft 445 kts 78°
2026-03-19 01:12 38.53216 -78.65106 24828 ft 446 kts 78°
2026-03-19 01:12 38.53824 -78.61223 24313 ft 445 kts 77°
2026-03-19 01:13 38.54447 -78.57350 23801 ft 445 kts 77°
2026-03-19 01:13 38.55064 -78.53503 23223 ft 438 kts 77°
2026-03-19 01:13 38.55665 -78.49723 22658 ft 430 kts 77°
2026-03-19 01:13 38.56258 -78.46013 22093 ft 423 kts 77°
2026-03-19 01:14 38.56838 -78.42360 21549 ft 417 kts 77°
2026-03-19 01:14 38.57405 -78.38803 21042 ft 411 kts 77°
2026-03-19 01:14 38.57975 -78.35259 20557 ft 404 kts 77°
2026-03-19 01:14 38.58555 -78.31771 20067 ft 399 kts 76°
2026-03-19 01:15 38.59151 -78.28321 19591 ft 396 kts 76°
2026-03-19 01:15 38.59751 -78.24898 19126 ft 394 kts 75°
2026-03-19 01:15 38.60596 -78.21592 18700 ft 389 kts 66°
2026-03-19 01:15 38.61676 -78.18444 18244 ft 385 kts 63°
2026-03-19 01:16 38.63881 -78.12215 17323 ft 384 kts 64°
2026-03-19 01:16 38.64905 -78.09123 16862 ft 382 kts 65°
2026-03-19 01:16 38.65906 -78.05984 16407 ft 380 kts 65°
2026-03-19 01:17 38.66898 -78.02859 15947 ft 377 kts 65°
2026-03-19 01:17 38.67888 -77.99772 15481 ft 373 kts 65°
2026-03-19 01:17 38.68872 -77.96723 15033 ft 368 kts 65°
2026-03-19 01:17 38.69839 -77.93708 14611 ft 364 kts 65°
2026-03-19 01:18 38.70796 -77.90729 14170 ft 358 kts 65°
2026-03-19 01:18 38.71727 -77.87835 13679 ft 346 kts 64°
2026-03-19 01:18 38.72622 -77.85034 13256 ft 334 kts 65°
2026-03-19 01:18 38.73495 -77.82379 12853 ft 322 kts 59°
2026-03-19 01:19 38.74791 -77.80129 12512 ft 311 kts 43°
2026-03-19 01:19 38.76284 -77.78148 12174 ft 308 kts 40°
2026-03-19 01:19 38.77786 -77.76191 11845 ft 307 kts 40°
2026-03-19 01:19 38.79264 -77.74225 11512 ft 306 kts 41°
2026-03-19 01:20 38.80750 -77.72276 11118 ft 306 kts 39°
2026-03-19 01:20 38.82270 -77.70357 10697 ft 307 kts 41°
2026-03-19 01:20 38.83654 -77.68273 10399 ft 307 kts 47°
2026-03-19 01:20 38.84927 -77.66137 10098 ft 303 kts 47°
2026-03-19 01:21 38.86214 -77.64011 9756 ft 300 kts 47°
2026-03-19 01:21 38.87520 -77.61943 9433 ft 295 kts 43°
2026-03-19 01:21 38.89124 -77.60433 9114 ft 282 kts 22°
2026-03-19 01:21 38.90867 -77.59299 8776 ft 280 kts 21°
2026-03-19 01:22 38.92622 -77.58220 8391 ft 279 kts 20°
2026-03-19 01:22 38.94387 -77.57184 8003 ft 279 kts 20°
2026-03-19 01:22 38.95505 -77.56373 7741 ft 282 kts 34°
2026-03-19 01:22 38.96997 -77.54733 7363 ft 282 kts 38°
2026-03-19 01:23 38.98457 -77.53065 6987 ft 281 kts 39°
2026-03-19 01:23 39.00375 -77.50855 6462 ft 278 kts 39°
2026-03-19 01:23 39.01819 -77.49210 6053 ft 276 kts 40°
2026-03-19 01:23 39.03263 -77.47591 5664 ft 275 kts 40°
2026-03-19 01:24 39.04710 -77.46002 5274 ft 273 kts 40°
2026-03-19 01:24 39.05638 -77.44914 4989 ft 272 kts 46°
2026-03-19 01:24 39.06823 -77.43017 4544 ft 271 kts 60°
2026-03-19 01:24 39.07560 -77.40825 4205 ft 264 kts 79°
2026-03-19 01:25 39.07665 -77.38532 3948 ft 252 kts 101°
2026-03-19 01:25 39.07085 -77.35737 3676 ft 241 kts 112°
2026-03-19 01:25 39.06572 -77.33688 3416 ft 240 kts 112°
2026-03-19 01:25 39.06193 -77.32342 3337 ft 233 kts 117°
2026-03-19 01:26 39.05414 -77.30591 3172 ft 225 kts 131°
2026-03-19 01:26 39.04360 -77.29154 3050 ft 217 kts 141°
2026-03-19 01:26 39.03218 -77.27899 3053 ft 215 kts 143°
2026-03-19 01:26 39.02065 -77.26667 2978 ft 218 kts 143°
2026-03-19 01:27 39.00534 -77.25009 2908 ft 207 kts 143°
2026-03-19 01:27 38.99509 -77.23869 2946 ft 188 kts 142°
2026-03-19 01:27 38.98574 -77.22770 2924 ft 179 kts 140°
2026-03-19 01:27 38.98015 -77.21966 2884 ft 178 kts 132°
2026-03-19 01:28 38.97381 -77.20641 2915 ft 178 kts 120°
2026-03-19 01:28 38.97007 -77.19089 2949 ft 185 kts 105°
2026-03-19 01:28 38.96773 -77.17483 2736 ft 181 kts 105°
2026-03-19 01:28 38.96444 -77.15961 2461 ft 173 kts 118°
2026-03-19 01:29 38.95805 -77.14717 2238 ft 163 kts 135°
2026-03-19 01:29 38.95002 -77.13738 2057 ft 158 kts 142°
2026-03-19 01:29 38.94142 -77.12832 1983 ft 156 kts 144°
2026-03-19 01:29 38.93334 -77.12017 1789 ft 141 kts 145°
2026-03-19 01:30 38.92588 -77.11273 1610 ft 136 kts 145°
2026-03-19 01:30 38.91856 -77.10565 1467 ft 127 kts 146°
2026-03-19 01:30 38.91162 -77.09765 1343 ft 145 kts 134°
2026-03-19 01:30 38.90617 -77.08634 1153 ft 148 kts 114°
2026-03-19 01:31 38.90307 -77.07431 900 ft 135 kts 115°
2026-03-19 01:31 38.89746 -77.06488 765 ft 135 kts 139°
2026-03-19 01:31 38.88996 -77.05739 667 ft 137 kts 142°
2026-03-19 01:31 38.88223 -77.04978 514 ft 143 kts 142°
2026-03-19 01:32 38.87390 -77.04261 323 ft 140 kts 152°
2026-03-19 01:32 38.86512 -77.03913 120 ft 131 kts 171°
2026-03-19 01:32 38.85677 -77.03830 22 ft 106 kts 174°
2026-03-19 01:32 38.85176 -77.03779 22 ft 41 kts 176°
2026-03-19 01:33 38.84955 -77.03759 22 ft 19 kts 184°
2026-03-19 01:33 38.84883 -77.03854 22 ft 15 kts 283°
2026-03-19 01:33 38.84976 -77.03898 22 ft 18 kts 355°
2026-03-19 01:33 38.85121 -77.03914 22 ft 24 kts 355°
2026-03-19 01:34 38.85234 -77.03925 24 ft 18 kts 355°
2026-03-19 01:34 38.85379 -77.03940 22 ft 21 kts 357°
2026-03-19 01:34 38.85509 -77.03952 22 ft 12 kts 356°
2026-03-19 01:34 38.85600 -77.03980 23 ft 16 kts 326°
2026-03-19 01:35 38.85701 -77.04079 24 ft 19 kts 323°
2026-03-19 01:35 38.85783 -77.04159 23 ft 12 kts 322°
2026-03-19 01:35 38.85820 -77.04213 24 ft 6 kts 271°
2026-03-19 01:35 38.85811 -77.04261 22 ft 4 kts 256°
2026-03-19 01:36 38.85809 -77.04268 22 ft 0 kts 257°